sensor_id;sensor_type;location;lat;lon;timestamp;P1;durP1;ratioP1;P2;durP2;ratioP2
19036;SDS011;9651;49.138;8.900;2024-03-25T00:00:35;7.07;;;3.83;;
19036;SDS011;9651;49.138;8.900;2024-03-25T00:04:38;3.73;;;2.10;;
19036;SDS011;9651;49.138;8.900;2024-03-25T00:08:40;3.87;;;2.00;;
19036;SDS011;9651;49.138;8.900;2024-03-25T00:12:42;4.30;;;2.23;;
19036;SDS011;9651;49.138;8.900;2024-03-25T00:16:44;6.60;;;2.40;;
19036;SDS011;9651;49.138;8.900;2024-03-25T00:20:48;3.93;;;2.20;;
19036;SDS011;9651;49.138;8.900;2024-03-25T00:24:49;5.07;;;2.27;;
19036;SDS011;9651;49.138;8.900;2024-03-25T00:28:51;4.47;;;1.97;;
19036;SDS011;9651;49.138;8.900;2024-03-25T00:32:53;3.50;;;2.00;;
19036;SDS011;9651;49.138;8.900;2024-03-25T00:36:57;4.60;;;2.33;;
19036;SDS011;9651;49.138;8.900;2024-03-25T00:40:59;5.83;;;2.10;;
19036;SDS011;9651;49.138;8.900;2024-03-25T00:45:00;14.70;;;3.33;;
19036;SDS011;9651;49.138;8.900;2024-03-25T00:49:02;2.93;;;1.90;;
19036;SDS011;9651;49.138;8.900;2024-03-25T00:53:06;6.77;;;2.33;;
19036;SDS011;9651;49.138;8.900;2024-03-25T00:57:08;5.17;;;2.20;;
19036;SDS011;9651;49.138;8.900;2024-03-25T01:01:12;6.00;;;2.07;;
19036;SDS011;9651;49.138;8.900;2024-03-25T01:05:14;2.53;;;1.60;;
19036;SDS011;9651;49.138;8.900;2024-03-25T01:09:17;3.23;;;2.10;;
19036;SDS011;9651;49.138;8.900;2024-03-25T01:13:19;6.23;;;2.17;;
19036;SDS011;9651;49.138;8.900;2024-03-25T01:17:21;6.90;;;2.63;;
19036;SDS011;9651;49.138;8.900;2024-03-25T01:21:23;6.20;;;2.50;;
19036;SDS011;9651;49.138;8.900;2024-03-25T01:25:26;4.63;;;1.97;;
19036;SDS011;9651;49.138;8.900;2024-03-25T01:29:28;5.07;;;2.63;;
19036;SDS011;9651;49.138;8.900;2024-03-25T01:33:30;3.90;;;2.10;;
19036;SDS011;9651;49.138;8.900;2024-03-25T01:37:32;4.57;;;2.10;;
19036;SDS011;9651;49.138;8.900;2024-03-25T01:41:35;5.23;;;2.07;;
19036;SDS011;9651;49.138;8.900;2024-03-25T01:45:37;2.63;;;1.87;;
19036;SDS011;9651;49.138;8.900;2024-03-25T01:49:39;4.60;;;2.20;;
19036;SDS011;9651;49.138;8.900;2024-03-25T01:53:41;4.40;;;2.07;;
19036;SDS011;9651;49.138;8.900;2024-03-25T01:57:45;3.93;;;2.50;;
19036;SDS011;9651;49.138;8.900;2024-03-25T02:01:47;3.50;;;2.27;;
19036;SDS011;9651;49.138;8.900;2024-03-25T02:05:50;6.63;;;2.50;;
19036;SDS011;9651;49.138;8.900;2024-03-25T02:09:56;3.77;;;2.00;;
19036;SDS011;9651;49.138;8.900;2024-03-25T02:14:00;3.77;;;1.80;;
19036;SDS011;9651;49.138;8.900;2024-03-25T02:18:02;3.60;;;2.13;;
19036;SDS011;9651;49.138;8.900;2024-03-25T02:22:04;4.97;;;2.27;;
19036;SDS011;9651;49.138;8.900;2024-03-25T02:26:07;6.13;;;2.20;;
19036;SDS011;9651;49.138;8.900;2024-03-25T02:30:09;5.27;;;1.93;;
19036;SDS011;9651;49.138;8.900;2024-03-25T02:34:12;4.20;;;2.10;;
19036;SDS011;9651;49.138;8.900;2024-03-25T02:38:14;14.23;;;2.67;;
19036;SDS011;9651;49.138;8.900;2024-03-25T02:42:20;4.60;;;2.20;;
19036;SDS011;9651;49.138;8.900;2024-03-25T02:46:21;7.30;;;2.63;;
19036;SDS011;9651;49.138;8.900;2024-03-25T02:50:23;6.73;;;2.47;;
19036;SDS011;9651;49.138;8.900;2024-03-25T02:54:25;5.47;;;2.53;;
19036;SDS011;9651;49.138;8.900;2024-03-25T02:58:29;4.03;;;2.13;;
19036;SDS011;9651;49.138;8.900;2024-03-25T03:02:30;4.37;;;2.20;;
19036;SDS011;9651;49.138;8.900;2024-03-25T03:06:32;6.07;;;2.20;;
19036;SDS011;9651;49.138;8.900;2024-03-25T03:10:34;3.87;;;1.80;;
19036;SDS011;9651;49.138;8.900;2024-03-25T03:14:37;4.90;;;2.20;;
19036;SDS011;9651;49.138;8.900;2024-03-25T03:18:39;5.63;;;2.50;;
19036;SDS011;9651;49.138;8.900;2024-03-25T03:22:41;4.80;;;2.23;;
19036;SDS011;9651;49.138;8.900;2024-03-25T03:26:43;6.43;;;2.30;;
19036;SDS011;9651;49.138;8.900;2024-03-25T03:30:46;3.73;;;2.13;;
19036;SDS011;9651;49.138;8.900;2024-03-25T03:34:48;4.93;;;2.40;;
19036;SDS011;9651;49.138;8.900;2024-03-25T03:38:53;6.13;;;2.67;;
19036;SDS011;9651;49.138;8.900;2024-03-25T03:42:55;5.53;;;2.20;;
19036;SDS011;9651;49.138;8.900;2024-03-25T03:46:58;5.93;;;2.43;;
19036;SDS011;9651;49.138;8.900;2024-03-25T03:50:59;4.23;;;1.80;;
19036;SDS011;9651;49.138;8.900;2024-03-25T03:55:01;5.53;;;2.40;;
19036;SDS011;9651;49.138;8.900;2024-03-25T03:59:04;3.37;;;2.10;;
19036;SDS011;9651;49.138;8.900;2024-03-25T04:03:07;3.43;;;1.90;;
19036;SDS011;9651;49.138;8.900;2024-03-25T04:07:09;7.60;;;2.70;;
19036;SDS011;9651;49.138;8.900;2024-03-25T04:11:11;4.43;;;2.13;;
19036;SDS011;9651;49.138;8.900;2024-03-25T04:15:13;4.50;;;2.17;;
19036;SDS011;9651;49.138;8.900;2024-03-25T04:19:19;3.77;;;2.40;;
19036;SDS011;9651;49.138;8.900;2024-03-25T04:23:21;5.97;;;2.40;;
19036;SDS011;9651;49.138;8.900;2024-03-25T04:27:23;5.47;;;2.70;;
19036;SDS011;9651;49.138;8.900;2024-03-25T04:31:26;5.57;;;2.17;;
19036;SDS011;9651;49.138;8.900;2024-03-25T04:35:30;3.40;;;2.40;;
19036;SDS011;9651;49.138;8.900;2024-03-25T04:39:31;5.93;;;2.60;;
19036;SDS011;9651;49.138;8.900;2024-03-25T04:43:32;5.57;;;3.20;;
19036;SDS011;9651;49.138;8.900;2024-03-25T04:47:33;6.47;;;2.40;;
19036;SDS011;9651;49.138;8.900;2024-03-25T04:51:35;7.30;;;2.70;;
19036;SDS011;9651;49.138;8.900;2024-03-25T04:55:36;8.87;;;2.60;;
19036;SDS011;9651;49.138;8.900;2024-03-25T04:59:37;10.50;;;3.40;;
19036;SDS011;9651;49.138;8.900;2024-03-25T05:03:38;7.20;;;2.33;;
19036;SDS011;9651;49.138;8.900;2024-03-25T05:07:41;5.37;;;2.50;;
19036;SDS011;9651;49.138;8.900;2024-03-25T05:11:42;7.30;;;2.57;;
19036;SDS011;9651;49.138;8.900;2024-03-25T05:15:49;3.47;;;2.43;;
19036;SDS011;9651;49.138;8.900;2024-03-25T05:19:50;9.27;;;2.87;;
19036;SDS011;9651;49.138;8.900;2024-03-25T05:23:52;6.27;;;2.53;;
19036;SDS011;9651;49.138;8.900;2024-03-25T05:27:53;4.27;;;2.37;;
19036;SDS011;9651;49.138;8.900;2024-03-25T05:31:57;5.27;;;2.80;;
19036;SDS011;9651;49.138;8.900;2024-03-25T05:35:59;6.77;;;2.40;;
19036;SDS011;9651;49.138;8.900;2024-03-25T05:40:02;7.70;;;2.60;;
19036;SDS011;9651;49.138;8.900;2024-03-25T05:44:04;5.43;;;2.37;;
19036;SDS011;9651;49.138;8.900;2024-03-25T05:48:05;4.50;;;2.70;;
19036;SDS011;9651;49.138;8.900;2024-03-25T05:52:06;6.70;;;2.50;;
19036;SDS011;9651;49.138;8.900;2024-03-25T05:56:09;5.07;;;2.50;;
19036;SDS011;9651;49.138;8.900;2024-03-25T06:00:10;9.30;;;2.50;;
19036;SDS011;9651;49.138;8.900;2024-03-25T06:04:13;5.03;;;2.30;;
19036;SDS011;9651;49.138;8.900;2024-03-25T06:08:14;6.03;;;2.87;;
19036;SDS011;9651;49.138;8.900;2024-03-25T06:12:19;4.60;;;2.10;;
19036;SDS011;9651;49.138;8.900;2024-03-25T06:16:20;6.03;;;2.60;;
19036;SDS011;9651;49.138;8.900;2024-03-25T06:20:21;4.93;;;2.13;;
19036;SDS011;9651;49.138;8.900;2024-03-25T06:24:22;7.33;;;2.77;;
19036;SDS011;9651;49.138;8.900;2024-03-25T06:28:24;6.27;;;3.20;;
19036;SDS011;9651;49.138;8.900;2024-03-25T06:32:25;5.23;;;2.47;;
19036;SDS011;9651;49.138;8.900;2024-03-25T06:36:45;5.47;;;2.33;;
19036;SDS011;9651;49.138;8.900;2024-03-25T06:40:46;3.63;;;2.30;;
19036;SDS011;9651;49.138;8.900;2024-03-25T06:44:48;5.17;;;2.70;;
19036;SDS011;9651;49.138;8.900;2024-03-25T06:48:51;4.37;;;2.30;;
19036;SDS011;9651;49.138;8.900;2024-03-25T06:52:52;5.47;;;2.67;;
19036;SDS011;9651;49.138;8.900;2024-03-25T06:56:53;3.73;;;2.07;;
19036;SDS011;9651;49.138;8.900;2024-03-25T07:00:55;3.87;;;2.50;;
19036;SDS011;9651;49.138;8.900;2024-03-25T07:04:57;5.07;;;2.40;;
19036;SDS011;9651;49.138;8.900;2024-03-25T07:08:58;4.40;;;2.20;;
19036;SDS011;9651;49.138;8.900;2024-03-25T07:12:59;8.63;;;2.57;;
19036;SDS011;9651;49.138;8.900;2024-03-25T07:17:01;5.57;;;3.07;;
19036;SDS011;9651;49.138;8.900;2024-03-25T07:21:03;5.10;;;2.27;;
19036;SDS011;9651;49.138;8.900;2024-03-25T07:25:04;5.37;;;2.57;;
19036;SDS011;9651;49.138;8.900;2024-03-25T07:29:06;5.77;;;2.97;;
19036;SDS011;9651;49.138;8.900;2024-03-25T07:33:08;6.53;;;2.53;;
19036;SDS011;9651;49.138;8.900;2024-03-25T07:37:09;5.90;;;2.73;;
19036;SDS011;9651;49.138;8.900;2024-03-25T07:41:10;7.00;;;3.90;;
19036;SDS011;9651;49.138;8.900;2024-03-25T07:45:11;3.73;;;1.90;;
19036;SDS011;9651;49.138;8.900;2024-03-25T07:49:13;8.40;;;3.70;;
19036;SDS011;9651;49.138;8.900;2024-03-25T07:53:14;6.73;;;1.70;;
19036;SDS011;9651;49.138;8.900;2024-03-25T07:57:15;6.27;;;2.50;;
19036;SDS011;9651;49.138;8.900;2024-03-25T08:01:16;4.50;;;2.50;;
19036;SDS011;9651;49.138;8.900;2024-03-25T08:05:18;8.57;;;2.38;;
19036;SDS011;9651;49.138;8.900;2024-03-25T08:09:19;5.00;;;3.00;;
19036;SDS011;9651;49.138;8.900;2024-03-25T08:13:21;3.63;;;2.28;;
19036;SDS011;9651;49.138;8.900;2024-03-25T08:17:22;5.57;;;2.05;;
19036;SDS011;9651;49.138;8.900;2024-03-25T08:21:24;2.60;;;1.70;;
19036;SDS011;9651;49.138;8.900;2024-03-25T08:25:25;4.18;;;2.38;;
19036;SDS011;9651;49.138;8.900;2024-03-25T08:29:26;4.18;;;1.77;;
19036;SDS011;9651;49.138;8.900;2024-03-25T08:33:27;4.20;;;1.90;;
19036;SDS011;9651;49.138;8.900;2024-03-25T08:37:30;3.85;;;2.15;;
19036;SDS011;9651;49.138;8.900;2024-03-25T08:41:31;6.50;;;2.00;;
19036;SDS011;9651;49.138;8.900;2024-03-25T08:45:32;9.82;;;2.05;;
19036;SDS011;9651;49.138;8.900;2024-03-25T08:49:33;5.85;;;1.73;;
19036;SDS011;9651;49.138;8.900;2024-03-25T08:53:35;2.63;;;1.05;;
19036;SDS011;9651;49.138;8.900;2024-03-25T08:57:36;8.27;;;4.05;;
19036;SDS011;9651;49.138;8.900;2024-03-25T09:01:37;2.95;;;1.90;;
19036;SDS011;9651;49.138;8.900;2024-03-25T09:05:38;2.80;;;1.52;;
19036;SDS011;9651;49.138;8.900;2024-03-25T09:09:40;1.83;;;1.10;;
19036;SDS011;9651;49.138;8.900;2024-03-25T09:13:59;3.15;;;1.40;;
19036;SDS011;9651;49.138;8.900;2024-03-25T09:18:00;4.43;;;1.63;;
19036;SDS011;9651;49.138;8.900;2024-03-25T09:22:01;3.88;;;1.58;;
19036;SDS011;9651;49.138;8.900;2024-03-25T09:26:04;4.15;;;1.38;;
19036;SDS011;9651;49.138;8.900;2024-03-25T09:30:05;3.10;;;1.70;;
19036;SDS011;9651;49.138;8.900;2024-03-25T09:34:08;3.35;;;1.00;;
19036;SDS011;9651;49.138;8.900;2024-03-25T09:38:08;1.75;;;0.90;;
19036;SDS011;9651;49.138;8.900;2024-03-25T09:42:12;5.68;;;1.58;;
19036;SDS011;9651;49.138;8.900;2024-03-25T09:46:15;2.17;;;1.20;;
19036;SDS011;9651;49.138;8.900;2024-03-25T09:50:17;6.68;;;1.10;;
19036;SDS011;9651;49.138;8.900;2024-03-25T09:54:19;5.47;;;1.50;;
19036;SDS011;9651;49.138;8.900;2024-03-25T09:58:21;4.28;;;1.55;;
19036;SDS011;9651;49.138;8.900;2024-03-25T10:02:24;2.58;;;1.25;;
19036;SDS011;9651;49.138;8.900;2024-03-25T10:06:26;2.75;;;1.17;;
19036;SDS011;9651;49.138;8.900;2024-03-25T10:10:27;4.85;;;1.15;;
19036;SDS011;9651;49.138;8.900;2024-03-25T10:14:29;3.92;;;1.30;;
19036;SDS011;9651;49.138;8.900;2024-03-25T10:18:30;4.07;;;1.30;;
19036;SDS011;9651;49.138;8.900;2024-03-25T10:22:40;3.03;;;1.33;;
19036;SDS011;9651;49.138;8.900;2024-03-25T10:26:42;3.95;;;1.42;;
19036;SDS011;9651;49.138;8.900;2024-03-25T10:30:44;4.18;;;1.33;;
19036;SDS011;9651;49.138;8.900;2024-03-25T10:34:46;3.67;;;1.50;;
19036;SDS011;9651;49.138;8.900;2024-03-25T10:38:49;3.42;;;1.38;;
19036;SDS011;9651;49.138;8.900;2024-03-25T10:42:50;2.50;;;1.42;;
19036;SDS011;9651;49.138;8.900;2024-03-25T10:46:55;2.58;;;1.30;;
19036;SDS011;9651;49.138;8.900;2024-03-25T10:51:01;2.72;;;1.35;;
19036;SDS011;9651;49.138;8.900;2024-03-25T10:55:03;3.80;;;2.10;;
19036;SDS011;9651;49.138;8.900;2024-03-25T10:59:06;2.83;;;1.15;;
19036;SDS011;9651;49.138;8.900;2024-03-25T11:03:10;3.58;;;1.33;;
19036;SDS011;9651;49.138;8.900;2024-03-25T11:07:12;2.38;;;1.20;;
19036;SDS011;9651;49.138;8.900;2024-03-25T11:11:14;4.35;;;1.60;;
19036;SDS011;9651;49.138;8.900;2024-03-25T11:15:15;3.28;;;1.23;;
19036;SDS011;9651;49.138;8.900;2024-03-25T11:19:17;1.90;;;1.20;;
19036;SDS011;9651;49.138;8.900;2024-03-25T11:23:18;1.73;;;1.20;;
19036;SDS011;9651;49.138;8.900;2024-03-25T11:27:21;2.47;;;1.25;;
19036;SDS011;9651;49.138;8.900;2024-03-25T11:31:22;1.83;;;0.95;;
19036;SDS011;9651;49.138;8.900;2024-03-25T11:35:27;3.20;;;1.30;;
19036;SDS011;9651;49.138;8.900;2024-03-25T11:39:28;2.42;;;1.50;;
19036;SDS011;9651;49.138;8.900;2024-03-25T11:43:29;1.95;;;1.20;;
19036;SDS011;9651;49.138;8.900;2024-03-25T11:47:30;4.20;;;1.65;;
19036;SDS011;9651;49.138;8.900;2024-03-25T11:51:34;2.17;;;1.30;;
19036;SDS011;9651;49.138;8.900;2024-03-25T11:55:36;2.67;;;1.55;;
19036;SDS011;9651;49.138;8.900;2024-03-25T11:59:38;3.10;;;1.30;;
19036;SDS011;9651;49.138;8.900;2024-03-25T12:03:39;3.83;;;1.15;;
19036;SDS011;9651;49.138;8.900;2024-03-25T12:07:41;4.90;;;1.40;;
19036;SDS011;9651;49.138;8.900;2024-03-25T12:11:42;3.45;;;1.60;;
19036;SDS011;9651;49.138;8.900;2024-03-25T12:15:43;2.58;;;1.45;;
19036;SDS011;9651;49.138;8.900;2024-03-25T12:19:44;2.08;;;1.38;;
19036;SDS011;9651;49.138;8.900;2024-03-25T12:23:46;3.55;;;1.50;;
19036;SDS011;9651;49.138;8.900;2024-03-25T12:27:48;5.13;;;1.38;;
19036;SDS011;9651;49.138;8.900;2024-03-25T12:31:53;2.15;;;1.35;;
19036;SDS011;9651;49.138;8.900;2024-03-25T12:35:56;3.95;;;1.83;;
19036;SDS011;9651;49.138;8.900;2024-03-25T12:39:58;3.42;;;1.30;;
19036;SDS011;9651;49.138;8.900;2024-03-25T12:44:00;3.38;;;1.63;;
19036;SDS011;9651;49.138;8.900;2024-03-25T12:48:02;2.40;;;1.23;;
19036;SDS011;9651;49.138;8.900;2024-03-25T12:52:04;3.45;;;1.25;;
19036;SDS011;9651;49.138;8.900;2024-03-25T12:56:07;4.15;;;1.30;;
19036;SDS011;9651;49.138;8.900;2024-03-25T13:00:08;3.72;;;1.40;;
19036;SDS011;9651;49.138;8.900;2024-03-25T13:04:10;4.70;;;1.52;;
19036;SDS011;9651;49.138;8.900;2024-03-25T13:08:11;2.13;;;1.60;;
19036;SDS011;9651;49.138;8.900;2024-03-25T13:12:13;2.55;;;1.10;;
19036;SDS011;9651;49.138;8.900;2024-03-25T13:16:14;2.33;;;1.20;;
19036;SDS011;9651;49.138;8.900;2024-03-25T13:20:15;2.45;;;1.25;;
19036;SDS011;9651;49.138;8.900;2024-03-25T13:24:16;3.17;;;1.20;;
19036;SDS011;9651;49.138;8.900;2024-03-25T13:28:19;4.32;;;1.27;;
19036;SDS011;9651;49.138;8.900;2024-03-25T13:32:20;3.25;;;1.20;;
19036;SDS011;9651;49.138;8.900;2024-03-25T13:36:21;4.95;;;1.35;;
19036;SDS011;9651;49.138;8.900;2024-03-25T13:40:22;5.88;;;1.70;;
19036;SDS011;9651;49.138;8.900;2024-03-25T13:44:24;3.83;;;1.10;;
19036;SDS011;9651;49.138;8.900;2024-03-25T13:48:25;2.03;;;1.35;;
19036;SDS011;9651;49.138;8.900;2024-03-25T13:52:26;1.77;;;1.20;;
19036;SDS011;9651;49.138;8.900;2024-03-25T13:56:27;2.72;;;1.30;;
19036;SDS011;9651;49.138;8.900;2024-03-25T14:00:29;1.35;;;1.10;;
19036;SDS011;9651;49.138;8.900;2024-03-25T14:04:30;2.80;;;1.40;;
19036;SDS011;9651;49.138;8.900;2024-03-25T14:08:31;2.90;;;1.60;;
19036;SDS011;9651;49.138;8.900;2024-03-25T14:12:32;4.10;;;1.45;;
19036;SDS011;9651;49.138;8.900;2024-03-25T14:16:34;1.67;;;1.13;;
19036;SDS011;9651;49.138;8.900;2024-03-25T14:20:35;2.45;;;1.08;;
19036;SDS011;9651;49.138;8.900;2024-03-25T14:24:36;2.15;;;1.27;;
19036;SDS011;9651;49.138;8.900;2024-03-25T14:28:37;3.85;;;1.30;;
19036;SDS011;9651;49.138;8.900;2024-03-25T14:32:39;2.30;;;1.17;;
19036;SDS011;9651;49.138;8.900;2024-03-25T14:36:40;3.28;;;1.50;;
19036;SDS011;9651;49.138;8.900;2024-03-25T14:40:41;3.25;;;1.50;;
19036;SDS011;9651;49.138;8.900;2024-03-25T14:44:42;4.35;;;1.55;;
19036;SDS011;9651;49.138;8.900;2024-03-25T14:48:44;1.92;;;1.33;;
19036;SDS011;9651;49.138;8.900;2024-03-25T14:52:45;2.20;;;1.17;;
19036;SDS011;9651;49.138;8.900;2024-03-25T14:56:46;2.58;;;1.38;;
19036;SDS011;9651;49.138;8.900;2024-03-25T15:00:48;2.65;;;1.52;;
19036;SDS011;9651;49.138;8.900;2024-03-25T15:04:50;4.43;;;1.27;;
19036;SDS011;9651;49.138;8.900;2024-03-25T15:08:51;2.03;;;1.20;;
19036;SDS011;9651;49.138;8.900;2024-03-25T15:12:52;2.65;;;1.42;;
19036;SDS011;9651;49.138;8.900;2024-03-25T15:16:53;1.85;;;1.40;;
19036;SDS011;9651;49.138;8.900;2024-03-25T15:21:00;5.35;;;1.20;;
19036;SDS011;9651;49.138;8.900;2024-03-25T15:25:02;8.10;;;1.55;;
19036;SDS011;9651;49.138;8.900;2024-03-25T15:29:03;3.72;;;1.30;;
19036;SDS011;9651;49.138;8.900;2024-03-25T15:33:04;2.42;;;1.50;;
19036;SDS011;9651;49.138;8.900;2024-03-25T15:37:06;6.50;;;1.58;;
19036;SDS011;9651;49.138;8.900;2024-03-25T15:41:08;3.40;;;1.40;;
19036;SDS011;9651;49.138;8.900;2024-03-25T15:45:09;5.22;;;1.73;;
19036;SDS011;9651;49.138;8.900;2024-03-25T15:49:10;1.88;;;1.08;;
19036;SDS011;9651;49.138;8.900;2024-03-25T15:53:13;1.60;;;1.27;;
19036;SDS011;9651;49.138;8.900;2024-03-25T15:57:13;1.75;;;1.13;;
19036;SDS011;9651;49.138;8.900;2024-03-25T16:01:14;6.93;;;1.75;;
19036;SDS011;9651;49.138;8.900;2024-03-25T16:05:16;4.20;;;1.60;;
19036;SDS011;9651;49.138;8.900;2024-03-25T16:09:18;4.30;;;1.40;;
19036;SDS011;9651;49.138;8.900;2024-03-25T16:13:19;3.78;;;1.23;;
19036;SDS011;9651;49.138;8.900;2024-03-25T16:17:21;3.95;;;1.83;;
19036;SDS011;9651;49.138;8.900;2024-03-25T16:21:21;2.88;;;1.10;;
19036;SDS011;9651;49.138;8.900;2024-03-25T16:25:24;1.45;;;1.30;;
19036;SDS011;9651;49.138;8.900;2024-03-25T16:29:25;4.07;;;1.40;;
19036;SDS011;9651;49.138;8.900;2024-03-25T16:33:26;2.63;;;1.40;;
19036;SDS011;9651;49.138;8.900;2024-03-25T16:37:27;2.67;;;1.33;;
19036;SDS011;9651;49.138;8.900;2024-03-25T16:41:30;5.93;;;1.70;;
19036;SDS011;9651;49.138;8.900;2024-03-25T16:45:31;3.67;;;1.20;;
19036;SDS011;9651;49.138;8.900;2024-03-25T16:49:32;1.83;;;1.27;;
19036;SDS011;9651;49.138;8.900;2024-03-25T16:53:33;4.78;;;1.23;;
19036;SDS011;9651;49.138;8.900;2024-03-25T16:57:35;2.53;;;1.23;;
19036;SDS011;9651;49.138;8.900;2024-03-25T17:01:36;3.65;;;1.60;;
19036;SDS011;9651;49.138;8.900;2024-03-25T17:05:37;2.77;;;1.70;;
19036;SDS011;9651;49.138;8.900;2024-03-25T17:09:38;2.75;;;1.17;;
19036;SDS011;9651;49.138;8.900;2024-03-25T17:13:40;5.17;;;2.30;;
19036;SDS011;9651;49.138;8.900;2024-03-25T17:17:41;2.70;;;1.45;;
19036;SDS011;9651;49.138;8.900;2024-03-25T17:21:42;3.75;;;1.83;;
19036;SDS011;9651;49.138;8.900;2024-03-25T17:25:43;5.20;;;2.10;;
19036;SDS011;9651;49.138;8.900;2024-03-25T17:29:48;3.05;;;1.30;;
19036;SDS011;9651;49.138;8.900;2024-03-25T17:33:49;5.03;;;1.40;;
19036;SDS011;9651;49.138;8.900;2024-03-25T17:37:50;4.38;;;2.50;;
19036;SDS011;9651;49.138;8.900;2024-03-25T17:41:51;5.07;;;2.60;;
19036;SDS011;9651;49.138;8.900;2024-03-25T17:45:53;6.17;;;2.47;;
19036;SDS011;9651;49.138;8.900;2024-03-25T17:49:54;4.27;;;1.77;;
19036;SDS011;9651;49.138;8.900;2024-03-25T17:53:55;10.77;;;3.00;;
19036;SDS011;9651;49.138;8.900;2024-03-25T17:57:56;7.43;;;2.13;;
19036;SDS011;9651;49.138;8.900;2024-03-25T18:01:59;6.67;;;3.10;;
19036;SDS011;9651;49.138;8.900;2024-03-25T18:05:59;5.50;;;2.50;;
19036;SDS011;9651;49.138;8.900;2024-03-25T18:10:00;6.60;;;3.23;;
19036;SDS011;9651;49.138;8.900;2024-03-25T18:14:01;5.90;;;3.60;;
19036;SDS011;9651;49.138;8.900;2024-03-25T18:18:04;6.90;;;3.97;;
19036;SDS011;9651;49.138;8.900;2024-03-25T18:22:05;7.43;;;4.00;;
19036;SDS011;9651;49.138;8.900;2024-03-25T18:26:06;8.77;;;4.73;;
19036;SDS011;9651;49.138;8.900;2024-03-25T18:30:07;9.67;;;5.00;;
19036;SDS011;9651;49.138;8.900;2024-03-25T18:34:10;8.57;;;4.37;;
19036;SDS011;9651;49.138;8.900;2024-03-25T18:38:11;9.40;;;3.67;;
19036;SDS011;9651;49.138;8.900;2024-03-25T18:42:12;5.17;;;2.93;;
19036;SDS011;9651;49.138;8.900;2024-03-25T18:46:13;4.63;;;3.20;;
19036;SDS011;9651;49.138;8.900;2024-03-25T18:50:15;3.67;;;2.97;;
19036;SDS011;9651;49.138;8.900;2024-03-25T18:54:16;6.53;;;3.90;;
19036;SDS011;9651;49.138;8.900;2024-03-25T18:58:17;6.87;;;3.40;;
19036;SDS011;9651;49.138;8.900;2024-03-25T19:02:18;5.40;;;3.33;;
19036;SDS011;9651;49.138;8.900;2024-03-25T19:06:20;10.43;;;4.03;;
19036;SDS011;9651;49.138;8.900;2024-03-25T19:10:21;9.50;;;3.80;;
19036;SDS011;9651;49.138;8.900;2024-03-25T19:14:22;8.83;;;4.00;;
19036;SDS011;9651;49.138;8.900;2024-03-25T19:18:23;9.83;;;4.93;;
19036;SDS011;9651;49.138;8.900;2024-03-25T19:22:26;8.40;;;4.50;;
19036;SDS011;9651;49.138;8.900;2024-03-25T19:26:27;7.40;;;3.80;;
19036;SDS011;9651;49.138;8.900;2024-03-25T19:30:28;7.93;;;3.70;;
19036;SDS011;9651;49.138;8.900;2024-03-25T19:34:29;7.03;;;3.13;;
19036;SDS011;9651;49.138;8.900;2024-03-25T19:38:31;7.53;;;3.10;;
19036;SDS011;9651;49.138;8.900;2024-03-25T19:42:32;5.63;;;2.70;;
19036;SDS011;9651;49.138;8.900;2024-03-25T19:46:33;6.83;;;3.23;;
19036;SDS011;9651;49.138;8.900;2024-03-25T19:50:34;9.03;;;4.20;;
19036;SDS011;9651;49.138;8.900;2024-03-25T19:54:36;8.57;;;4.37;;
19036;SDS011;9651;49.138;8.900;2024-03-25T19:58:37;6.50;;;3.23;;
19036;SDS011;9651;49.138;8.900;2024-03-25T20:02:38;7.37;;;3.77;;
19036;SDS011;9651;49.138;8.900;2024-03-25T20:06:39;5.13;;;3.37;;
19036;SDS011;9651;49.138;8.900;2024-03-25T20:10:41;6.47;;;3.47;;
19036;SDS011;9651;49.138;8.900;2024-03-25T20:14:42;8.37;;;3.57;;
19036;SDS011;9651;49.138;8.900;2024-03-25T20:18:43;4.87;;;3.50;;
19036;SDS011;9651;49.138;8.900;2024-03-25T20:22:44;7.80;;;4.20;;
19036;SDS011;9651;49.138;8.900;2024-03-25T20:26:47;6.93;;;3.90;;
19036;SDS011;9651;49.138;8.900;2024-03-25T20:30:48;5.43;;;4.27;;
19036;SDS011;9651;49.138;8.900;2024-03-25T20:34:49;6.83;;;3.50;;
19036;SDS011;9651;49.138;8.900;2024-03-25T20:38:50;7.27;;;3.60;;
19036;SDS011;9651;49.138;8.900;2024-03-25T20:42:52;6.07;;;3.77;;
19036;SDS011;9651;49.138;8.900;2024-03-25T20:46:53;6.03;;;4.13;;
19036;SDS011;9651;49.138;8.900;2024-03-25T20:50:54;5.30;;;3.30;;
19036;SDS011;9651;49.138;8.900;2024-03-25T20:54:55;6.47;;;3.70;;
19036;SDS011;9651;49.138;8.900;2024-03-25T20:58:58;5.80;;;4.00;;
19036;SDS011;9651;49.138;8.900;2024-03-25T21:02:59;9.73;;;5.00;;
19036;SDS011;9651;49.138;8.900;2024-03-25T21:07:00;7.80;;;4.90;;
19036;SDS011;9651;49.138;8.900;2024-03-25T21:11:01;6.63;;;3.80;;
19036;SDS011;9651;49.138;8.900;2024-03-25T21:15:03;7.47;;;3.53;;
19036;SDS011;9651;49.138;8.900;2024-03-25T21:19:05;7.30;;;4.20;;
19036;SDS011;9651;49.138;8.900;2024-03-25T21:23:06;7.57;;;4.13;;
19036;SDS011;9651;49.138;8.900;2024-03-25T21:27:07;6.87;;;3.07;;
19036;SDS011;9651;49.138;8.900;2024-03-25T21:31:09;3.77;;;3.23;;
19036;SDS011;9651;49.138;8.900;2024-03-25T21:35:10;5.67;;;3.23;;
19036;SDS011;9651;49.138;8.900;2024-03-25T21:39:11;6.67;;;3.70;;
19036;SDS011;9651;49.138;8.900;2024-03-25T21:43:12;3.53;;;2.43;;
19036;SDS011;9651;49.138;8.900;2024-03-25T21:47:15;4.43;;;2.80;;
19036;SDS011;9651;49.138;8.900;2024-03-25T21:51:16;4.13;;;3.03;;
19036;SDS011;9651;49.138;8.900;2024-03-25T21:55:17;5.13;;;3.07;;
19036;SDS011;9651;49.138;8.900;2024-03-25T21:59:18;6.23;;;3.37;;
19036;SDS011;9651;49.138;8.900;2024-03-25T22:03:20;7.13;;;3.90;;
19036;SDS011;9651;49.138;8.900;2024-03-25T22:07:21;6.57;;;3.73;;
19036;SDS011;9651;49.138;8.900;2024-03-25T22:11:22;7.77;;;4.30;;
19036;SDS011;9651;49.138;8.900;2024-03-25T22:15:23;6.47;;;3.93;;
19036;SDS011;9651;49.138;8.900;2024-03-25T22:19:26;8.60;;;4.43;;
19036;SDS011;9651;49.138;8.900;2024-03-25T22:23:27;5.23;;;3.93;;
19036;SDS011;9651;49.138;8.900;2024-03-25T22:27:28;5.70;;;3.80;;
19036;SDS011;9651;49.138;8.900;2024-03-25T22:31:29;6.50;;;3.37;;
19036;SDS011;9651;49.138;8.900;2024-03-25T22:35:31;5.60;;;3.30;;
19036;SDS011;9651;49.138;8.900;2024-03-25T22:39:32;6.37;;;3.63;;
19036;SDS011;9651;49.138;8.900;2024-03-25T22:43:33;7.90;;;4.77;;
19036;SDS011;9651;49.138;8.900;2024-03-25T22:47:34;5.63;;;3.70;;
19036;SDS011;9651;49.138;8.900;2024-03-25T22:51:37;9.13;;;4.20;;
19036;SDS011;9651;49.138;8.900;2024-03-25T22:55:38;5.93;;;3.60;;
19036;SDS011;9651;49.138;8.900;2024-03-25T22:59:39;4.43;;;2.90;;
19036;SDS011;9651;49.138;8.900;2024-03-25T23:03:40;5.90;;;2.67;;
19036;SDS011;9651;49.138;8.900;2024-03-25T23:07:42;4.40;;;2.97;;
19036;SDS011;9651;49.138;8.900;2024-03-25T23:11:43;6.90;;;3.30;;
19036;SDS011;9651;49.138;8.900;2024-03-25T23:15:44;5.27;;;2.73;;
19036;SDS011;9651;49.138;8.900;2024-03-25T23:19:45;5.60;;;3.30;;
19036;SDS011;9651;49.138;8.900;2024-03-25T23:23:48;6.47;;;3.47;;
19036;SDS011;9651;49.138;8.900;2024-03-25T23:27:49;5.67;;;3.07;;
19036;SDS011;9651;49.138;8.900;2024-03-25T23:31:54;3.60;;;2.77;;
19036;SDS011;9651;49.138;8.900;2024-03-25T23:35:55;4.73;;;3.10;;
19036;SDS011;9651;49.138;8.900;2024-03-25T23:39:57;6.23;;;3.67;;
19036;SDS011;9651;49.138;8.900;2024-03-25T23:43:58;6.43;;;3.33;;
19036;SDS011;9651;49.138;8.900;2024-03-25T23:47:59;7.23;;;2.93;;
19036;SDS011;9651;49.138;8.900;2024-03-25T23:52:00;5.43;;;2.90;;
19036;SDS011;9651;49.138;8.900;2024-03-25T23:56:03;4.20;;;2.60;;
